createdAt,value
2022-10-15T00:00:26.796Z,62.28
2022-10-15T00:05:34.272Z,63.50
2022-10-15T00:10:41.057Z,63.47
2022-10-15T00:15:46.036Z,61.88
2022-10-15T00:20:50.774Z,56.60
2022-10-15T00:26:03.170Z,56.20
2022-10-15T00:31:07.576Z,55.28
2022-10-15T00:36:17.199Z,53.80
2022-10-15T00:41:22.057Z,60.25
2022-10-15T00:46:28.591Z,57.38
2022-10-15T00:51:37.645Z,62.67
2022-10-15T00:56:43.055Z,62.25
2022-10-15T01:01:49.140Z,62.13
2022-10-15T01:06:58.354Z,58.67
2022-10-15T01:12:02.877Z,60.83
2022-10-15T01:17:13.950Z,62.10
2022-10-15T01:22:23.680Z,62.92
2022-10-15T01:27:36.800Z,62.40
2022-10-15T01:32:48.805Z,61.05
2022-10-15T01:37:58.035Z,58.58
2022-10-15T01:43:04.645Z,56.33
2022-10-15T01:48:12.031Z,57.78
2022-10-15T01:53:18.567Z,56.45
2022-10-15T01:58:26.296Z,57.08
2022-10-15T02:03:50.295Z,57.08
2022-10-15T02:09:07.299Z,55.13
2022-10-15T02:14:17.691Z,60.25
2022-10-15T02:19:28.661Z,61.58
2022-10-15T02:24:39.003Z,56.22
2022-10-15T02:29:44.177Z,55.83
2022-10-15T02:34:54.880Z,56.55
2022-10-15T02:39:58.130Z,53.75
2022-10-15T02:45:00.764Z,52.92
2022-10-15T02:50:05.493Z,55.55
2022-10-15T02:55:08.833Z,56.42
2022-10-15T03:00:12.132Z,56.33
2022-10-15T03:05:15.796Z,58.13
2022-10-15T03:10:18.060Z,58.55
2022-10-15T03:15:20.810Z,52.95
2022-10-15T03:20:27.125Z,54.00
2022-10-15T03:25:31.242Z,55.42
2022-10-15T03:30:33.331Z,56.13
2022-10-15T03:35:39.799Z,51.45
2022-10-15T03:40:42.687Z,56.63
2022-10-15T03:45:44.942Z,57.40
2022-10-15T03:50:48.444Z,54.22
2022-10-15T03:55:50.535Z,61.17
2022-10-15T04:00:54.085Z,56.85
2022-10-15T04:05:59.832Z,59.08
2022-10-15T04:11:04.985Z,59.80
2022-10-15T04:16:07.897Z,55.20
2022-10-15T04:21:11.918Z,60.75
2022-10-15T04:26:13.998Z,59.10
2022-10-15T04:31:16.084Z,59.92
2022-10-15T04:36:19.555Z,59.15
2022-10-15T04:41:24.348Z,58.97
2022-10-15T04:46:27.085Z,63.75
2022-10-15T04:51:30.649Z,54.33
2022-10-15T04:56:32.740Z,56.38
2022-10-15T05:01:34.840Z,54.80
2022-10-15T05:06:38.324Z,61.05
2022-10-15T05:11:40.568Z,59.08
2022-10-15T05:16:42.673Z,57.22
2022-10-15T05:21:46.519Z,59.28
2022-10-15T05:26:49.258Z,58.35
2022-10-15T05:31:52.683Z,57.22
2022-10-15T05:36:56.239Z,55.83
2022-10-15T05:41:58.504Z,57.20
2022-10-15T05:47:00.582Z,56.65
2022-10-15T05:52:04.073Z,57.13
2022-10-15T05:57:06.154Z,57.35
2022-10-15T06:02:08.385Z,56.47
2022-10-15T06:07:17.622Z,55.85
2022-10-15T06:12:20.798Z,55.80
2022-10-15T06:17:26.756Z,54.35
2022-10-15T06:22:32.661Z,58.40
2022-10-15T06:27:35.104Z,61.60
2022-10-15T06:32:38.340Z,55.70
2022-10-15T06:37:42.402Z,54.30
2022-10-15T06:42:48.392Z,54.55
2022-10-15T06:47:51.548Z,54.33
2022-10-15T06:58:04.518Z,53.80
2022-10-15T07:03:12.777Z,55.15
2022-10-15T07:08:19.352Z,54.28
2022-10-15T07:13:28.660Z,51.35
2022-10-15T07:18:34.047Z,55.53
2022-10-15T07:23:39.542Z,55.22
2022-10-15T07:28:43.234Z,54.63
2022-10-15T07:33:46.703Z,56.75
2022-10-15T07:38:54.531Z,54.40
2022-10-15T07:44:00.624Z,55.55
2022-10-15T07:49:07.553Z,56.38
2022-10-15T07:54:14.785Z,50.95
2022-10-15T07:59:24.250Z,54.13
2022-10-15T08:04:30.973Z,53.38
2022-10-15T08:09:37.596Z,52.67
2022-10-15T08:14:42.785Z,50.95
2022-10-15T08:19:48.314Z,52.97
2022-10-15T08:24:54.753Z,51.33
2022-10-15T08:29:58.829Z,51.70
2022-10-15T08:35:03.639Z,50.45
2022-10-15T08:40:16.745Z,52.72
2022-10-15T08:45:27.888Z,53.83
2022-10-15T08:50:43.686Z,51.35
2022-10-15T08:55:52.415Z,49.85
2022-10-15T09:01:03.317Z,48.58
2022-10-15T09:06:18.120Z,51.33
2022-10-15T09:11:39.226Z,49.50
2022-10-15T09:16:44.712Z,51.90
2022-10-15T09:21:50.453Z,51.60
2022-10-15T09:27:08.657Z,51.22
2022-10-15T09:32:21.918Z,49.50
2022-10-15T09:37:33.131Z,49.25
2022-10-15T09:42:43.261Z,48.63
2022-10-15T09:47:49.497Z,45.90
2022-10-15T09:53:06.703Z,49.47
2022-10-15T09:58:21.383Z,48.72
2022-10-15T10:03:28.333Z,44.60
2022-10-15T10:08:36.871Z,45.83
2022-10-15T10:13:59.566Z,43.63
2022-10-15T10:19:14.870Z,43.85
2022-10-15T10:24:26.728Z,44.03
2022-10-15T10:29:42.287Z,40.75
2022-10-15T10:34:52.494Z,41.75
2022-10-15T10:40:00.666Z,40.80
2022-10-15T10:45:27.485Z,41.33
2022-10-15T10:50:44.769Z,41.45
2022-10-15T10:55:50.143Z,41.83
2022-10-15T11:01:01.046Z,38.75
2022-10-15T11:06:26.117Z,40.05
2022-10-15T11:11:37.179Z,42.60
2022-10-15T11:16:54.389Z,37.65
2022-10-15T11:27:41.769Z,39.00
2022-10-15T11:33:08.697Z,41.40
2022-10-15T11:38:25.890Z,44.88
2022-10-15T11:43:43.318Z,54.20
2022-10-15T11:49:04.049Z,57.28
2022-10-15T11:54:18.462Z,58.25
2022-10-15T11:59:35.990Z,46.85
2022-10-15T12:04:52.403Z,58.65
2022-10-15T12:10:02.794Z,59.03
2022-10-15T12:15:22.307Z,60.25
2022-10-15T12:20:33.394Z,56.15
2022-10-15T12:25:46.307Z,60.28
2022-10-15T12:30:59.210Z,46.20
2022-10-15T12:36:11.947Z,49.17
2022-10-15T12:41:18.528Z,66.75
2022-10-15T12:46:24.432Z,64.90
2022-10-15T12:51:41.523Z,67.00
2022-10-15T12:56:47.374Z,66.38
2022-10-15T13:01:55.850Z,73.60
2022-10-15T13:07:08.581Z,89.38
2022-10-15T13:12:27.829Z,102.50
2022-10-15T13:17:32.922Z,69.57
2022-10-15T13:22:42.045Z,62.28
2022-10-15T13:27:48.230Z,78.22
2022-10-15T13:32:55.281Z,74.88
2022-10-15T13:38:02.302Z,88.78
2022-10-15T13:43:09.677Z,87.10
2022-10-15T13:48:14.719Z,79.40
2022-10-15T13:53:31.260Z,64.22
2022-10-15T13:58:37.079Z,108.88
2022-10-15T14:03:42.467Z,102.95
2022-10-15T14:08:54.655Z,69.43
2022-10-15T14:14:00.936Z,65.97
2022-10-15T14:19:16.224Z,75.60
2022-10-15T14:24:26.878Z,60.60
2022-10-15T14:29:42.135Z,70.43
2022-10-15T14:34:47.375Z,66.35
2022-10-15T14:39:55.285Z,77.30
2022-10-15T14:45:02.492Z,83.78
2022-10-15T14:50:13.190Z,58.78
2022-10-15T14:55:33.984Z,59.03
2022-10-15T15:00:44.919Z,72.30
2022-10-15T15:05:53.810Z,70.65
2022-10-15T15:11:04.880Z,82.78
2022-10-15T15:16:10.254Z,73.40
2022-10-15T15:21:21.430Z,76.50
2022-10-15T15:26:30.281Z,61.45
2022-10-15T15:31:36.297Z,60.83
2022-10-15T15:36:43.638Z,71.28
2022-10-15T15:41:53.526Z,72.20
2022-10-15T15:47:00.025Z,60.40
2022-10-15T15:52:07.267Z,69.78
2022-10-15T15:57:15.118Z,56.40
2022-10-15T16:02:20.493Z,61.03
2022-10-15T16:07:28.388Z,70.43
2022-10-15T16:12:36.473Z,80.72
2022-10-15T16:17:40.599Z,74.30
2022-10-15T16:22:47.336Z,68.70
2022-10-15T16:27:57.937Z,73.05
2022-10-15T16:33:04.538Z,62.10
2022-10-15T16:38:11.057Z,66.43
2022-10-15T16:43:23.099Z,66.78
2022-10-15T16:48:32.650Z,67.30
2022-10-15T16:53:39.905Z,68.38
2022-10-15T16:58:48.188Z,75.88
2022-10-15T17:03:55.754Z,65.88
2022-10-15T17:09:04.174Z,70.15
2022-10-15T17:14:20.640Z,66.15
2022-10-15T17:19:33.218Z,67.65
2022-10-15T17:24:39.702Z,64.35
2022-10-15T17:29:50.801Z,67.50
2022-10-15T17:34:59.089Z,78.43
2022-10-15T17:40:09.225Z,81.78
2022-10-15T17:45:15.753Z,72.72
2022-10-15T17:50:22.740Z,69.25
2022-10-15T17:55:27.906Z,71.18
2022-10-15T18:00:37.722Z,68.13
2022-10-15T18:05:42.260Z,68.30
2022-10-15T18:10:49.421Z,66.00
2022-10-15T18:15:59.412Z,73.95
2022-10-15T18:21:07.853Z,72.28
2022-10-15T18:26:18.777Z,77.43
2022-10-15T18:31:32.446Z,74.43
2022-10-15T18:36:38.753Z,75.32
2022-10-15T18:46:54.488Z,75.07
2022-10-15T18:52:06.524Z,94.95
2022-10-15T18:57:22.043Z,77.03
2022-10-15T19:02:35.320Z,75.03
2022-10-15T19:07:45.612Z,79.35
2022-10-15T19:12:50.770Z,74.15
2022-10-15T19:17:58.947Z,70.70
2022-10-15T19:23:10.669Z,65.55
2022-10-15T19:28:21.508Z,88.07
2022-10-15T19:33:32.470Z,75.78
2022-10-15T19:38:41.909Z,70.60
2022-10-15T19:43:47.594Z,67.00
2022-10-15T19:48:53.652Z,69.50
2022-10-15T19:54:03.452Z,62.92
2022-10-15T19:59:10.452Z,77.78
2022-10-15T20:04:19.886Z,68.68
2022-10-15T20:09:24.535Z,71.85
2022-10-15T20:14:31.856Z,65.35
2022-10-15T20:19:41.292Z,67.68
2022-10-15T20:24:45.737Z,68.80
2022-10-15T20:29:51.875Z,66.60
2022-10-15T20:35:03.781Z,72.05
2022-10-15T20:40:08.472Z,82.63
2022-10-15T20:45:15.195Z,78.25
2022-10-15T20:50:30.193Z,80.10
2022-10-15T20:55:32.431Z,89.40
2022-10-15T21:00:34.684Z,82.80
2022-10-15T21:05:40.162Z,113.97
2022-10-15T21:10:42.295Z,90.32
2022-10-15T21:15:44.572Z,85.40
2022-10-15T21:20:48.781Z,94.00
2022-10-15T21:25:51.133Z,108.97
2022-10-15T21:30:53.362Z,115.43
2022-10-15T21:35:59.945Z,125.50
2022-10-15T21:41:02.766Z,139.90
2022-10-15T21:46:07.739Z,99.30
2022-10-15T21:51:18.173Z,112.72
2022-10-15T21:56:24.939Z,127.88
2022-10-15T22:01:29.630Z,133.82
2022-10-15T22:06:36.432Z,102.95
2022-10-15T22:11:43.283Z,127.45
2022-10-15T22:16:49.534Z,111.30
2022-10-15T22:21:54.749Z,122.22
2022-10-15T22:26:57.785Z,122.45
2022-10-15T22:32:01.804Z,149.40
2022-10-15T22:37:08.610Z,181.95
2022-10-15T22:42:12.549Z,222.77
2022-10-15T22:47:15.637Z,171.00
2022-10-15T22:52:20.315Z,208.45
2022-10-15T22:57:23.339Z,172.75
2022-10-15T23:02:27.000Z,135.35
2022-10-15T23:07:31.989Z,150.60
2022-10-15T23:12:35.154Z,137.90
2022-10-15T23:17:37.761Z,137.73
2022-10-15T23:22:47.900Z,157.90
2022-10-15T23:27:51.207Z,134.23
2022-10-15T23:32:55.146Z,129.45
2022-10-15T23:38:02.236Z,131.98
2022-10-15T23:43:04.994Z,126.60
2022-10-15T23:48:08.769Z,134.50
2022-10-15T23:53:14.043Z,140.43
2022-10-15T23:58:19.033Z,126.00
